createdAt,value
2022-09-14T00:00:13.609Z,95063.08
2022-09-14T00:05:52.751Z,95047.97
2022-09-14T00:08:41.359Z,95048.89
2022-09-14T00:14:18.997Z,95046.66
2022-09-14T00:19:55.872Z,95053.72
2022-09-14T00:22:44.560Z,95056.17
2022-09-14T00:28:15.372Z,95050.20
2022-09-14T00:33:54.866Z,95053.08
2022-09-14T00:39:30.158Z,95048.64
2022-09-14T00:45:15.745Z,95047.44
2022-09-14T00:48:04.225Z,95051.06
2022-09-14T00:50:52.976Z,95049.07
2022-09-14T00:53:41.287Z,95047.19
2022-09-14T00:56:29.700Z,95044.81
2022-09-14T01:02:10.893Z,95030.78
2022-09-14T01:07:49.222Z,95031.97
2022-09-14T01:13:49.835Z,95043.85
2022-09-14T01:19:33.897Z,95039.53
2022-09-14T01:25:20.381Z,95042.62
2022-09-14T01:31:08.015Z,95035.68
2022-09-14T01:34:03.421Z,95039.34
2022-09-14T01:39:40.860Z,95042.94
2022-09-14T01:45:37.559Z,95036.88
2022-09-14T01:51:21.156Z,95025.48
2022-09-14T01:57:04.156Z,95045.06
2022-09-14T02:02:55.293Z,95041.23
2022-09-14T02:08:45.848Z,95035.27
2022-09-14T02:11:34.441Z,95044.32
2022-09-14T02:14:23.501Z,95047.34
2022-09-14T02:20:00.164Z,95034.75
2022-09-14T02:22:48.301Z,95038.28
2022-09-14T02:25:39.506Z,95034.73
2022-09-14T02:28:30.497Z,95032.50
2022-09-14T02:34:11.791Z,95040.83
2022-09-14T02:37:04.818Z,95022.66
2022-09-14T02:42:41.182Z,95026.96
2022-09-14T02:48:26.168Z,95038.63
2022-09-14T02:54:03.165Z,95046.70
2022-09-14T02:59:36.960Z,95043.61
2022-09-14T03:05:08.772Z,95045.83
2022-09-14T03:10:46.744Z,95040.72
2022-09-14T03:13:36.819Z,95028.88
2022-09-14T03:19:12.116Z,95012.52
2022-09-14T03:22:00.740Z,95014.95
2022-09-14T03:24:48.955Z,95010.75
2022-09-14T03:30:18.068Z,95011.55
2022-09-14T03:33:07.573Z,95020.41
2022-09-14T03:35:55.886Z,95021.97
2022-09-14T03:38:49.558Z,95027.65
2022-09-14T03:41:39.203Z,95030.73
2022-09-14T03:44:27.949Z,95031.58
2022-09-14T03:47:17.368Z,95031.06
2022-09-14T03:52:57.111Z,95028.88
2022-09-14T03:58:34.205Z,95029.67
2022-09-14T04:04:15.416Z,95015.33
2022-09-14T04:09:55.340Z,95004.46
2022-09-14T04:15:31.902Z,95007.66
2022-09-14T04:18:20.622Z,95005.41
2022-09-14T04:24:14.828Z,95000.06
2022-09-14T04:29:38.293Z,95001.59
2022-09-14T04:32:32.188Z,94996.81
2022-09-14T04:38:09.175Z,95005.09
2022-09-14T04:40:57.805Z,95006.19
2022-09-14T04:46:36.879Z,94994.76
2022-09-14T04:49:25.573Z,94995.56
2022-09-14T04:52:13.815Z,94990.62
2022-09-14T04:57:50.974Z,94988.01
2022-09-14T05:03:26.730Z,94992.94
2022-09-14T05:06:16.706Z,94985.07
2022-09-14T05:11:51.969Z,94993.30
2022-09-14T05:17:24.731Z,94990.59
2022-09-14T05:20:13.986Z,94992.84
2022-09-14T05:25:57.583Z,94992.58
2022-09-14T05:31:34.689Z,95005.54
2022-09-14T05:34:26.846Z,94998.97
2022-09-14T05:37:15.773Z,94998.69
2022-09-14T05:42:49.831Z,94998.34
2022-09-14T05:48:23.277Z,94997.38
2022-09-14T05:51:18.277Z,94998.09
2022-09-14T05:54:09.630Z,95003.30
2022-09-14T05:59:48.343Z,94989.16
2022-09-14T06:02:37.894Z,94981.36
2022-09-14T06:05:26.197Z,94981.11
2022-09-14T06:11:05.748Z,94982.78
2022-09-14T06:13:55.687Z,94986.77
2022-09-14T06:19:32.792Z,94987.61
2022-09-14T06:22:21.442Z,94997.08
2022-09-14T06:31:04.876Z,94987.75
2022-09-14T06:36:43.263Z,94995.48
2022-09-14T06:42:15.655Z,95013.50
2022-09-14T06:45:04.234Z,95021.63
2022-09-14T06:50:33.173Z,95023.15
2022-09-14T06:56:30.113Z,95026.16
2022-09-14T06:59:20.184Z,95029.17
2022-09-14T07:02:09.780Z,95013.84
2022-09-14T07:07:46.700Z,95024.91
2022-09-14T07:10:35.083Z,95033.41
2022-09-14T07:16:11.443Z,95036.63
2022-09-14T07:21:48.013Z,95027.23
2022-09-14T07:27:24.243Z,95030.28
2022-09-14T07:32:59.038Z,95031.66
2022-09-14T07:38:51.747Z,95034.04
2022-09-14T07:41:27.400Z,95025.84
2022-09-14T07:47:02.573Z,95038.83
2022-09-14T07:52:38.509Z,95039.70
2022-09-14T07:58:08.944Z,95053.40
2022-09-14T08:03:49.067Z,95071.80
2022-09-14T08:27:41.310Z,95108.03
2022-09-14T08:33:11.909Z,95112.20
2022-09-14T08:38:47.465Z,95112.86
2022-09-14T08:47:34.875Z,95118.16
2022-09-14T08:53:16.193Z,95091.77
2022-09-14T08:59:03.375Z,95097.29
2022-09-14T09:04:47.887Z,95079.33
2022-09-14T09:10:19.907Z,95074.81
2022-09-14T09:13:11.728Z,95075.04
2022-09-14T09:18:44.405Z,95064.14
2022-09-14T09:24:18.517Z,95064.31
2022-09-14T09:30:04.208Z,95059.75
2022-09-14T09:35:37.802Z,95055.08
2022-09-14T09:38:29.173Z,95059.30
2022-09-14T09:41:20.762Z,95028.25
2022-09-14T09:44:10.406Z,95028.25
2022-09-14T09:47:00.989Z,95021.70
2022-09-14T09:52:34.580Z,95018.64
2022-09-14T09:58:28.632Z,95023.50
2022-09-14T10:04:17.217Z,95012.59
2022-09-14T10:09:51.935Z,95017.81
2022-09-14T10:18:19.467Z,95005.61
2022-09-14T10:21:10.060Z,95008.60
2022-09-14T10:26:59.052Z,94996.37
2022-09-14T10:29:49.574Z,94996.29
2022-09-14T10:32:37.786Z,94996.29
2022-09-14T10:35:29.535Z,94987.52
2022-09-14T10:41:26.055Z,94982.98
2022-09-14T10:44:50.121Z,94976.85
2022-09-14T10:48:09.622Z,94973.88
2022-09-14T10:53:52.390Z,94987.86
2022-09-14T10:59:35.518Z,94968.16
2022-09-14T11:02:51.767Z,94961.45
2022-09-14T11:05:42.965Z,94958.20
2022-09-14T11:11:29.418Z,94959.46
2022-09-14T11:17:23.650Z,94949.06
2022-09-14T11:23:12.734Z,94954.99
2022-09-14T11:26:03.457Z,94946.84
2022-09-14T11:31:40.049Z,94949.30
2022-09-14T11:34:32.906Z,94951.36
2022-09-14T11:40:17.665Z,94955.23
2022-09-14T11:48:44.178Z,94971.41
2022-09-14T11:51:31.632Z,94970.84
2022-09-14T11:57:11.167Z,94978.50
2022-09-14T12:03:03.707Z,94982.55
2022-09-14T12:05:52.793Z,94984.84
2022-09-14T12:08:42.401Z,94982.14
2022-09-14T12:14:41.581Z,94993.80
2022-09-14T12:20:50.619Z,95000.27
2022-09-14T12:24:02.202Z,94991.91
2022-09-14T12:26:51.354Z,95002.34
2022-09-14T12:32:41.649Z,95003.84
2022-09-14T12:35:47.557Z,95003.84
2022-09-14T12:39:04.942Z,95024.55
2022-09-14T12:42:27.869Z,95027.98
2022-09-14T12:45:50.329Z,95023.91
2022-09-14T12:51:49.868Z,95026.75
2022-09-14T12:54:51.307Z,95023.87
2022-09-14T13:00:27.886Z,95021.33
2022-09-14T13:06:15.810Z,95018.09
2022-09-14T13:11:57.784Z,94991.38
2022-09-14T13:17:34.867Z,94983.00
2022-09-14T13:20:25.616Z,94989.09
2022-09-14T13:23:22.853Z,94990.10
2022-09-14T13:29:04.515Z,94997.38
2022-09-14T13:31:52.798Z,95003.23
2022-09-14T13:37:28.511Z,94993.81
2022-09-14T13:43:06.581Z,94991.92
2022-09-14T13:48:39.910Z,95009.33
2022-09-14T13:51:29.700Z,95015.76
2022-09-14T13:57:17.985Z,95009.70
2022-09-14T14:00:19.978Z,94999.92
2022-09-14T14:03:08.076Z,95011.59
2022-09-14T14:11:31.337Z,94991.27
2022-09-14T14:17:26.978Z,94997.78
2022-09-14T14:23:22.590Z,94999.00
2022-09-14T14:26:13.282Z,94991.44
2022-09-14T14:31:57.395Z,94973.55
2022-09-14T14:34:45.630Z,94960.47
2022-09-14T14:37:33.641Z,94960.47
2022-09-14T14:43:10.795Z,94957.56
2022-09-14T14:48:47.108Z,94969.20
2022-09-14T14:54:27.181Z,94970.56
2022-09-14T14:57:15.737Z,94978.48
2022-09-14T15:00:06.590Z,94968.75
2022-09-14T15:05:45.293Z,94959.75
2022-09-14T15:11:18.860Z,94967.47
2022-09-14T15:14:07.415Z,94961.92
2022-09-14T15:19:41.344Z,94968.70
2022-09-14T15:22:31.716Z,94954.89
2022-09-14T15:28:06.243Z,94957.60
2022-09-14T15:33:47.823Z,94949.64
2022-09-14T15:36:41.459Z,94942.32
2022-09-14T15:42:17.421Z,94936.26
2022-09-14T15:47:53.122Z,94933.14
2022-09-14T15:53:29.765Z,94950.92
2022-09-14T15:59:05.537Z,94939.44
2022-09-14T16:01:53.869Z,94929.17
2022-09-14T16:07:30.810Z,94931.70
2022-09-14T16:13:07.426Z,94921.95
2022-09-14T16:16:07.535Z,94929.87
2022-09-14T16:21:42.172Z,94926.38
2022-09-14T16:27:10.517Z,94908.95
2022-09-14T16:32:47.148Z,94912.81
2022-09-14T16:38:38.633Z,94917.58
2022-09-14T16:44:10.370Z,94919.92
2022-09-14T16:49:46.018Z,94915.09
2022-09-14T16:55:30.938Z,94914.48
2022-09-14T17:01:10.921Z,94909.39
2022-09-14T17:04:01.094Z,94911.13
2022-09-14T17:06:51.368Z,94905.78
2022-09-14T17:12:27.263Z,94907.50
2022-09-14T17:15:15.620Z,94911.05
2022-09-14T17:20:57.917Z,94916.47
2022-09-14T17:23:46.777Z,94917.84
2022-09-14T17:29:22.376Z,94913.37
2022-09-14T17:34:57.925Z,94915.17
2022-09-14T17:40:24.959Z,94906.06
2022-09-14T17:46:18.976Z,94907.65
2022-09-14T17:49:08.900Z,94909.03
2022-09-14T17:54:44.614Z,94905.35
2022-09-14T17:57:34.334Z,94915.45
2022-09-14T18:00:22.649Z,94919.32
2022-09-14T18:03:10.936Z,94917.75
2022-09-14T18:08:43.797Z,94918.38
2022-09-14T18:17:02.611Z,94926.91
2022-09-14T18:22:41.332Z,94917.48
2022-09-14T18:28:15.492Z,94901.73
2022-09-14T18:33:50.954Z,94889.22
2022-09-14T18:36:39.223Z,94873.95
2022-09-14T18:45:06.428Z,94888.23
2022-09-14T18:50:45.498Z,94923.77
2022-09-14T18:53:34.384Z,94943.38
2022-09-14T18:59:23.172Z,94949.65
2022-09-14T19:05:06.758Z,94959.91
2022-09-14T19:10:40.681Z,95002.77
2022-09-14T19:19:04.882Z,94993.80
2022-09-14T19:24:33.202Z,94994.44
2022-09-14T19:27:23.282Z,94987.56
2022-09-14T19:30:13.849Z,95012.45
2022-09-14T19:33:01.848Z,95020.18
2022-09-14T19:38:39.046Z,95012.30
2022-09-14T19:44:13.035Z,95027.10
2022-09-14T19:49:49.634Z,95015.84
2022-09-14T19:55:28.314Z,95007.06
2022-09-14T20:01:02.162Z,94999.63
2022-09-14T20:03:51.199Z,94990.77
2022-09-14T20:09:22.382Z,94978.37
2022-09-14T20:15:03.007Z,94946.27
2022-09-14T20:20:37.431Z,94926.28
2022-09-14T20:23:25.924Z,94916.45
2022-09-14T20:26:16.319Z,94925.00
2022-09-14T20:29:04.875Z,94925.91
2022-09-14T20:34:34.359Z,94937.11
2022-09-14T20:37:23.636Z,94922.77
2022-09-14T20:45:44.427Z,94942.91
2022-09-14T20:48:33.341Z,94962.91
2022-09-14T20:51:23.086Z,94973.61
2022-09-14T20:57:04.869Z,95004.54
2022-09-14T21:02:41.075Z,95026.73
2022-09-14T21:08:15.828Z,95060.50
2022-09-14T21:13:52.321Z,95067.38
2022-09-14T21:19:27.159Z,95069.36
2022-09-14T21:22:15.706Z,95066.66
2022-09-14T21:25:03.878Z,95071.05
2022-09-14T21:30:38.784Z,95049.27
2022-09-14T21:33:31.502Z,95062.67
2022-09-14T21:36:21.348Z,95060.92
2022-09-14T21:41:59.886Z,95048.03
2022-09-14T21:44:50.188Z,95050.41
2022-09-14T21:50:22.354Z,95044.02
2022-09-14T21:55:52.444Z,95052.86
2022-09-14T22:01:31.077Z,95048.50
2022-09-14T22:04:21.099Z,95056.20
2022-09-14T22:09:57.122Z,95063.64
2022-09-14T22:15:37.772Z,95081.05
2022-09-14T22:18:26.343Z,95089.22
2022-09-14T22:21:14.977Z,95094.27
2022-09-14T22:26:50.184Z,95076.41
2022-09-14T22:29:40.484Z,95090.34
2022-09-14T22:35:16.921Z,95092.27
2022-09-14T22:38:07.218Z,95108.34
2022-09-14T22:43:46.905Z,95111.50
2022-09-14T22:49:23.992Z,95118.38
2022-09-14T22:52:12.897Z,95107.95
2022-09-14T22:57:50.375Z,95107.44
2022-09-14T23:00:39.699Z,95128.19
2022-09-14T23:06:08.251Z,95137.48
2022-09-14T23:09:00.533Z,95128.50
2022-09-14T23:11:48.522Z,95127.53
2022-09-14T23:14:38.039Z,95129.63
2022-09-14T23:17:26.940Z,95114.06
2022-09-14T23:23:00.502Z,95113.55
2022-09-14T23:25:48.886Z,95121.63
2022-09-14T23:31:24.717Z,95126.13
2022-09-14T23:37:02.150Z,95119.89
2022-09-14T23:42:38.778Z,95142.70
2022-09-14T23:48:16.152Z,95136.06
2022-09-14T23:53:49.244Z,95130.67
2022-09-14T23:59:19.952Z,95138.21
